sensor_id;sensor_type;location;lat;lon;timestamp;P1;durP1;ratioP1;P2;durP2;ratioP2
71902;SDS011;59778;50.310;18.780;2023-05-13T00:05:30;12.63;;;4.00;;
71902;SDS011;59778;50.310;18.780;2023-05-13T00:20:52;12.23;;;4.33;;
71902;SDS011;59778;50.310;18.780;2023-05-13T00:36:13;10.47;;;4.67;;
71902;SDS011;59778;50.310;18.780;2023-05-13T00:51:35;17.30;;;7.17;;
71902;SDS011;59778;50.310;18.780;2023-05-13T01:07:01;18.27;;;6.67;;
71902;SDS011;59778;50.310;18.780;2023-05-13T01:22:26;15.13;;;5.30;;
71902;SDS011;59778;50.310;18.780;2023-05-13T01:37:47;11.47;;;5.20;;
71902;SDS011;59778;50.310;18.780;2023-05-13T01:53:10;12.07;;;5.30;;
71902;SDS011;59778;50.310;18.780;2023-05-13T02:08:31;13.87;;;5.27;;
71902;SDS011;59778;50.310;18.780;2023-05-13T02:23:53;14.63;;;5.77;;
71902;SDS011;59778;50.310;18.780;2023-05-13T02:39:15;13.27;;;5.70;;
71902;SDS011;59778;50.310;18.780;2023-05-13T02:54:36;13.97;;;6.60;;
71902;SDS011;59778;50.310;18.780;2023-05-13T03:09:58;17.47;;;6.63;;
71902;SDS011;59778;50.310;18.780;2023-05-13T03:25:19;13.50;;;6.20;;
71902;SDS011;59778;50.310;18.780;2023-05-13T03:40:40;15.73;;;5.90;;
71902;SDS011;59778;50.310;18.780;2023-05-13T03:56:02;19.97;;;5.30;;
71902;SDS011;59778;50.310;18.780;2023-05-13T04:11:23;13.70;;;5.57;;
71902;SDS011;59778;50.310;18.780;2023-05-13T04:26:44;14.60;;;6.30;;
71902;SDS011;59778;50.310;18.780;2023-05-13T04:42:06;14.03;;;5.80;;
71902;SDS011;59778;50.310;18.780;2023-05-13T04:57:27;13.37;;;5.40;;
71902;SDS011;59778;50.310;18.780;2023-05-13T05:12:49;11.67;;;5.83;;
71902;SDS011;59778;50.310;18.780;2023-05-13T05:28:10;16.33;;;5.63;;
71902;SDS011;59778;50.310;18.780;2023-05-13T05:43:32;12.93;;;5.90;;
71902;SDS011;59778;50.310;18.780;2023-05-13T05:58:53;10.53;;;5.50;;
71902;SDS011;59778;50.310;18.780;2023-05-13T06:14:15;12.50;;;6.17;;
71902;SDS011;59778;50.310;18.780;2023-05-13T06:29:37;14.17;;;5.60;;
71902;SDS011;59778;50.310;18.780;2023-05-13T06:44:58;9.53;;;4.20;;
71902;SDS011;59778;50.310;18.780;2023-05-13T07:00:19;9.17;;;4.83;;
71902;SDS011;59778;50.310;18.780;2023-05-13T07:15:41;11.53;;;4.03;;
71902;SDS011;59778;50.310;18.780;2023-05-13T07:31:05;11.40;;;3.20;;
71902;SDS011;59778;50.310;18.780;2023-05-13T07:46:27;6.70;;;2.90;;
71902;SDS011;59778;50.310;18.780;2023-05-13T08:01:48;10.40;;;3.53;;
71902;SDS011;59778;50.310;18.780;2023-05-13T08:17:09;6.90;;;2.70;;
71902;SDS011;59778;50.310;18.780;2023-05-13T08:32:32;5.93;;;2.67;;
71902;SDS011;59778;50.310;18.780;2023-05-13T08:48:01;7.40;;;2.20;;
71902;SDS011;59778;50.310;18.780;2023-05-13T09:03:56;7.63;;;3.53;;
71902;SDS011;59778;50.310;18.780;2023-05-13T09:19:20;4.70;;;2.23;;
71902;SDS011;59778;50.310;18.780;2023-05-13T09:34:46;5.47;;;2.33;;
71902;SDS011;59778;50.310;18.780;2023-05-13T09:50:09;7.43;;;2.90;;
71902;SDS011;59778;50.310;18.780;2023-05-13T10:05:32;4.53;;;2.13;;
71902;SDS011;59778;50.310;18.780;2023-05-13T10:20:54;5.40;;;2.63;;
71902;SDS011;59778;50.310;18.780;2023-05-13T10:51:49;5.67;;;2.13;;
71902;SDS011;59778;50.310;18.780;2023-05-13T11:07:14;5.77;;;2.07;;
71902;SDS011;59778;50.310;18.780;2023-05-13T11:22:36;4.47;;;2.07;;
71902;SDS011;59778;50.310;18.780;2023-05-13T11:37:59;5.27;;;1.70;;
71902;SDS011;59778;50.310;18.780;2023-05-13T11:53:22;7.37;;;2.37;;
71902;SDS011;59778;50.310;18.780;2023-05-13T12:08:43;5.40;;;2.17;;
71902;SDS011;59778;50.310;18.780;2023-05-13T12:24:15;4.27;;;2.20;;
71902;SDS011;59778;50.310;18.780;2023-05-13T12:39:43;5.50;;;2.27;;
71902;SDS011;59778;50.310;18.780;2023-05-13T12:55:13;5.10;;;2.20;;
71902;SDS011;59778;50.310;18.780;2023-05-13T13:10:40;7.33;;;2.97;;
71902;SDS011;59778;50.310;18.780;2023-05-13T13:26:01;7.03;;;3.00;;
71902;SDS011;59778;50.310;18.780;2023-05-13T13:41:23;6.87;;;3.20;;
71902;SDS011;59778;50.310;18.780;2023-05-13T13:56:45;7.50;;;2.87;;
71902;SDS011;59778;50.310;18.780;2023-05-13T14:12:09;7.03;;;2.70;;
71902;SDS011;59778;50.310;18.780;2023-05-13T14:27:31;9.70;;;3.03;;
71902;SDS011;59778;50.310;18.780;2023-05-13T14:43:03;6.13;;;2.40;;
71902;SDS011;59778;50.310;18.780;2023-05-13T14:58:24;5.07;;;2.30;;
71902;SDS011;59778;50.310;18.780;2023-05-13T15:13:46;7.63;;;2.80;;
71902;SDS011;59778;50.310;18.780;2023-05-13T15:29:07;5.60;;;2.10;;
71902;SDS011;59778;50.310;18.780;2023-05-13T15:44:35;6.50;;;2.70;;
71902;SDS011;59778;50.310;18.780;2023-05-13T16:00:09;7.53;;;2.40;;
71902;SDS011;59778;50.310;18.780;2023-05-13T16:15:32;13.57;;;3.57;;
71902;SDS011;59778;50.310;18.780;2023-05-13T16:30:53;8.37;;;3.30;;
71902;SDS011;59778;50.310;18.780;2023-05-13T16:46:16;9.07;;;3.73;;
71902;SDS011;59778;50.310;18.780;2023-05-13T17:01:40;8.30;;;3.17;;
71902;SDS011;59778;50.310;18.780;2023-05-13T17:33:09;6.13;;;2.83;;
71902;SDS011;59778;50.310;18.780;2023-05-13T17:48:31;9.80;;;3.00;;
71902;SDS011;59778;50.310;18.780;2023-05-13T18:03:53;9.73;;;3.63;;
71902;SDS011;59778;50.310;18.780;2023-05-13T18:19:15;8.03;;;3.83;;
71902;SDS011;59778;50.310;18.780;2023-05-13T18:34:36;16.43;;;4.83;;
71902;SDS011;59778;50.310;18.780;2023-05-13T18:49:57;64.53;;;23.70;;
71902;SDS011;59778;50.310;18.780;2023-05-13T19:05:19;18.43;;;6.83;;
71902;SDS011;59778;50.310;18.780;2023-05-13T19:20:41;13.47;;;5.20;;
71902;SDS011;59778;50.310;18.780;2023-05-13T19:36:05;30.23;;;12.03;;
71902;SDS011;59778;50.310;18.780;2023-05-13T19:51:27;28.50;;;11.27;;
71902;SDS011;59778;50.310;18.780;2023-05-13T20:06:48;21.00;;;9.80;;
71902;SDS011;59778;50.310;18.780;2023-05-13T20:22:12;62.97;;;22.27;;
71902;SDS011;59778;50.310;18.780;2023-05-13T20:37:41;31.03;;;13.77;;
71902;SDS011;59778;50.310;18.780;2023-05-13T20:53:02;29.37;;;13.60;;
71902;SDS011;59778;50.310;18.780;2023-05-13T21:08:23;32.70;;;15.03;;
71902;SDS011;59778;50.310;18.780;2023-05-13T21:23:45;28.27;;;12.53;;
71902;SDS011;59778;50.310;18.780;2023-05-13T21:39:08;29.37;;;12.20;;
71902;SDS011;59778;50.310;18.780;2023-05-13T21:54:30;27.63;;;10.93;;
71902;SDS011;59778;50.310;18.780;2023-05-13T22:09:51;22.10;;;10.10;;
71902;SDS011;59778;50.310;18.780;2023-05-13T22:25:12;18.93;;;8.37;;
71902;SDS011;59778;50.310;18.780;2023-05-13T22:40:34;18.13;;;8.57;;
71902;SDS011;59778;50.310;18.780;2023-05-13T22:55:56;19.90;;;8.43;;
71902;SDS011;59778;50.310;18.780;2023-05-13T23:11:17;15.53;;;7.27;;
71902;SDS011;59778;50.310;18.780;2023-05-13T23:26:38;18.80;;;7.33;;
71902;SDS011;59778;50.310;18.780;2023-05-13T23:42:00;14.07;;;6.53;;
71902;SDS011;59778;50.310;18.780;2023-05-13T23:57:21;18.60;;;8.07;;
